createdAt,value
2019-02-03T00:01:41.171Z,0.00
2019-02-03T00:04:07.884Z,0.00
2019-02-03T00:06:34.335Z,0.00
2019-02-03T00:09:00.813Z,0.00
2019-02-03T00:11:27.364Z,0.00
2019-02-03T00:13:54.083Z,0.10
2019-02-03T00:16:20.788Z,0.10
2019-02-03T00:18:47.280Z,0.10
2019-02-03T00:21:13.984Z,0.10
2019-02-03T00:23:40.704Z,0.00
2019-02-03T00:26:07.411Z,0.00
2019-02-03T00:28:33.887Z,0.00
2019-02-03T00:31:00.364Z,0.10
2019-02-03T00:33:26.929Z,0.10
2019-02-03T00:35:53.383Z,0.10
2019-02-03T00:38:23.099Z,0.10
2019-02-03T00:40:48.207Z,0.00
2019-02-03T00:43:14.679Z,0.00
2019-02-03T00:45:41.152Z,0.00
2019-02-03T00:48:07.713Z,0.00
2019-02-03T00:50:34.283Z,0.00
2019-02-03T00:53:00.740Z,0.00
2019-02-03T00:55:27.207Z,0.00
2019-02-03T00:57:54.067Z,0.00
2019-02-03T01:00:20.788Z,0.00
2019-02-03T01:02:47.487Z,0.00
2019-02-03T01:05:14.510Z,0.00
2019-02-03T01:07:41.060Z,0.00
2019-02-03T01:10:08.924Z,0.00
2019-02-03T01:12:35.484Z,0.00
2019-02-03T01:15:02.439Z,0.00
2019-02-03T01:17:28.896Z,0.00
2019-02-03T01:19:55.629Z,0.00
2019-02-03T01:22:22.083Z,0.00
2019-02-03T01:24:48.804Z,0.00
2019-02-03T01:27:15.512Z,0.00
2019-02-03T01:29:42.245Z,-0.10
2019-02-03T01:32:09.100Z,-0.10
2019-02-03T01:34:35.584Z,-0.10
2019-02-03T01:37:02.047Z,-0.10
2019-02-03T01:39:28.621Z,-0.10
2019-02-03T01:41:55.202Z,-0.20
2019-02-03T01:44:23.201Z,-0.20
2019-02-03T01:46:50.097Z,-0.30
2019-02-03T01:49:17.016Z,-0.30
2019-02-03T01:51:43.718Z,-0.30
2019-02-03T01:54:10.177Z,-0.30
2019-02-03T01:56:36.647Z,-0.30
2019-02-03T01:59:03.108Z,-0.30
2019-02-03T02:01:30.291Z,-0.30
2019-02-03T02:03:56.869Z,-0.30
2019-02-03T02:06:23.789Z,-0.30
2019-02-03T02:08:50.243Z,-0.30
2019-02-03T02:11:16.974Z,-0.30
2019-02-03T02:13:43.765Z,-0.40
2019-02-03T02:16:11.532Z,-0.40
2019-02-03T02:18:38.004Z,-0.40
2019-02-03T02:21:04.732Z,-0.40
2019-02-03T02:23:31.474Z,-0.40
2019-02-03T02:25:58.188Z,-0.40
2019-02-03T02:28:24.899Z,-0.40
2019-02-03T02:30:51.640Z,-0.40
2019-02-03T02:33:18.196Z,-0.40
2019-02-03T02:35:44.673Z,-0.40
2019-02-03T02:38:11.228Z,-0.40
2019-02-03T02:40:38.104Z,-0.40
2019-02-03T02:43:04.904Z,-0.40
2019-02-03T02:45:31.388Z,-0.40
2019-02-03T02:47:57.841Z,-0.40
2019-02-03T02:50:29.029Z,-0.50
2019-02-03T02:52:55.588Z,-0.40
2019-02-03T02:55:22.152Z,-0.50
2019-02-03T02:57:48.908Z,-0.50
2019-02-03T03:00:17.365Z,-0.40
2019-02-03T03:02:44.311Z,-0.40
2019-02-03T03:05:10.795Z,-0.40
2019-02-03T03:07:37.251Z,-0.40
2019-02-03T03:10:03.753Z,-0.40
2019-02-03T03:12:30.305Z,-0.40
2019-02-03T03:14:57.935Z,-0.40
2019-02-03T03:17:24.504Z,-0.40
2019-02-03T03:19:51.076Z,-0.30
2019-02-03T03:22:17.541Z,-0.30
2019-02-03T03:24:43.989Z,-0.30
2019-02-03T03:27:10.711Z,-0.30
2019-02-03T03:29:37.164Z,-0.30
2019-02-03T03:32:04.055Z,-0.30
2019-02-03T03:34:30.766Z,-0.30
2019-02-03T03:36:57.239Z,-0.30
2019-02-03T03:39:23.692Z,-0.30
2019-02-03T03:41:50.155Z,-0.30
2019-02-03T03:44:16.617Z,-0.30
2019-02-03T03:46:43.185Z,-0.40
2019-02-03T03:49:10.076Z,-0.50
2019-02-03T03:51:36.813Z,-0.50
2019-02-03T03:54:03.500Z,-0.40
2019-02-03T03:56:29.973Z,-0.50
2019-02-03T03:58:56.672Z,-0.60
2019-02-03T04:01:23.396Z,-0.60
2019-02-03T04:03:49.851Z,-0.70
2019-02-03T04:06:16.324Z,-0.70
2019-02-03T04:08:45.155Z,-0.70
2019-02-03T04:11:11.244Z,-0.80
2019-02-03T04:13:38.059Z,-0.90
2019-02-03T04:16:04.624Z,-0.90
2019-02-03T04:18:31.423Z,-0.90
2019-02-03T04:20:57.898Z,-0.90
2019-02-03T04:23:24.489Z,-0.90
2019-02-03T04:25:53.025Z,-1.00
2019-02-03T04:28:19.723Z,-1.00
2019-02-03T04:30:46.199Z,-1.00
2019-02-03T04:33:12.987Z,-1.00
2019-02-03T04:35:39.444Z,-1.00
2019-02-03T04:38:06.525Z,-1.00
2019-02-03T04:40:32.992Z,-0.90
2019-02-03T04:42:59.570Z,-0.90
2019-02-03T04:45:26.268Z,-0.90
2019-02-03T04:47:52.842Z,-0.90
2019-02-03T04:50:19.554Z,-0.90
2019-02-03T04:52:46.128Z,-0.90
2019-02-03T04:55:13.623Z,-0.90
2019-02-03T04:57:40.094Z,-0.80
2019-02-03T05:00:07.853Z,-0.90
2019-02-03T05:02:34.903Z,-0.80
2019-02-03T05:05:01.361Z,-0.80
2019-02-03T05:07:27.975Z,-0.80
2019-02-03T05:09:54.724Z,-0.80
2019-02-03T05:12:21.440Z,-0.80
2019-02-03T05:14:48.124Z,-0.80
2019-02-03T05:17:14.836Z,-0.80
2019-02-03T05:19:41.283Z,-0.80
2019-02-03T05:22:07.747Z,-0.80
2019-02-03T05:24:34.460Z,-0.90
2019-02-03T05:27:01.051Z,-0.90
2019-02-03T05:29:27.607Z,-1.00
2019-02-03T05:31:54.285Z,-1.00
2019-02-03T05:34:20.747Z,-1.00
2019-02-03T05:36:47.561Z,-1.00
2019-02-03T05:39:24.610Z,-1.00
2019-02-03T05:41:42.637Z,-1.00
2019-02-03T05:44:09.215Z,-1.00
2019-02-03T05:46:35.901Z,-1.00
2019-02-03T05:49:02.808Z,-1.00
2019-02-03T05:51:29.608Z,-1.00
2019-02-03T05:53:56.335Z,-1.00
2019-02-03T05:56:23.069Z,-0.90
2019-02-03T05:58:49.661Z,-0.90
2019-02-03T06:01:16.363Z,-0.90
2019-02-03T06:03:43.228Z,-0.90
2019-02-03T06:06:09.935Z,-0.90
2019-02-03T06:08:36.412Z,-0.90
2019-02-03T06:11:02.882Z,-0.90
2019-02-03T06:13:29.924Z,-0.90
2019-02-03T06:15:56.377Z,-0.90
2019-02-03T06:18:23.175Z,-1.00
2019-02-03T06:20:50.124Z,-1.00
2019-02-03T06:23:16.902Z,-1.00
2019-02-03T06:25:43.361Z,-1.00
2019-02-03T06:28:10.183Z,-1.00
2019-02-03T06:30:56.435Z,-1.00
2019-02-03T06:33:23.428Z,-1.00
2019-02-03T06:35:50.078Z,-1.00
2019-02-03T06:38:16.896Z,-1.00
2019-02-03T06:40:43.696Z,-1.00
2019-02-03T06:43:10.176Z,-1.00
2019-02-03T06:45:55.519Z,-1.00
2019-02-03T06:48:22.395Z,-1.00
2019-02-03T06:50:48.848Z,-1.00
2019-02-03T06:53:15.746Z,-1.00
2019-02-03T06:55:42.230Z,-1.00
2019-02-03T06:58:09.027Z,-1.00
2019-02-03T07:00:35.742Z,-1.00
2019-02-03T07:03:03.007Z,-1.00
2019-02-03T07:05:29.656Z,-1.00
2019-02-03T07:07:56.356Z,-1.00
2019-02-03T07:10:23.080Z,-1.00
2019-02-03T07:12:49.537Z,-1.10
2019-02-03T07:15:16.004Z,-1.10
2019-02-03T07:17:42.712Z,-1.10
2019-02-03T07:20:09.299Z,-1.00
2019-02-03T07:22:36.154Z,-1.00
2019-02-03T07:25:02.720Z,-0.90
2019-02-03T07:27:29.187Z,-0.90
2019-02-03T07:29:55.652Z,-0.90
2019-02-03T07:32:22.335Z,-0.90
2019-02-03T07:34:48.812Z,-0.80
2019-02-03T07:37:16.577Z,-0.80
2019-02-03T07:39:43.445Z,-0.80
2019-02-03T07:42:09.899Z,-0.80
2019-02-03T07:44:36.603Z,-0.80
2019-02-03T07:47:03.062Z,-0.70
2019-02-03T07:49:29.534Z,-0.70
2019-02-03T07:51:56.196Z,-0.70
2019-02-03T07:54:23.004Z,-0.70
2019-02-03T07:56:50.031Z,-0.60
2019-02-03T07:59:16.508Z,-0.60
2019-02-03T08:01:43.131Z,-0.60
2019-02-03T08:04:09.834Z,-0.60
2019-02-03T08:06:36.385Z,-0.50
2019-02-03T08:09:05.395Z,-0.60
2019-02-03T08:11:31.845Z,-0.50
2019-02-03T08:13:58.699Z,-0.50
2019-02-03T08:16:25.169Z,-0.50
2019-02-03T08:18:51.620Z,-0.50
2019-02-03T08:21:18.191Z,-0.50
2019-02-03T08:23:45.000Z,-0.40
2019-02-03T08:26:11.496Z,-0.40
2019-02-03T08:28:37.952Z,-0.40
2019-02-03T08:31:04.684Z,-0.40
2019-02-03T08:33:31.589Z,-0.40
2019-02-03T08:35:58.764Z,-0.40
2019-02-03T08:38:25.868Z,-0.30
2019-02-03T08:40:52.446Z,-0.40
2019-02-03T08:43:18.993Z,-0.30
2019-02-03T08:45:45.585Z,-0.30
2019-02-03T08:48:12.035Z,-0.30
2019-02-03T08:50:38.817Z,-0.30
2019-02-03T08:53:05.515Z,-0.20
2019-02-03T08:55:32.012Z,-0.20
2019-02-03T08:57:58.464Z,-0.20
2019-02-03T09:00:25.769Z,-0.10
2019-02-03T09:02:52.224Z,-0.20
2019-02-03T09:05:18.716Z,-0.10
2019-02-03T09:07:45.570Z,0.00
2019-02-03T09:10:12.982Z,-0.10
2019-02-03T09:12:39.528Z,-0.10
2019-02-03T09:15:06.924Z,-0.10
2019-02-03T09:17:33.384Z,0.00
2019-02-03T09:19:59.840Z,0.00
2019-02-03T09:22:26.329Z,0.00
2019-02-03T09:24:53.182Z,0.00
2019-02-03T09:27:19.812Z,0.00
2019-02-03T09:29:46.822Z,0.00
2019-02-03T09:32:13.444Z,0.10
2019-02-03T09:34:40.135Z,0.10
2019-02-03T09:37:06.889Z,0.10
2019-02-03T09:39:33.691Z,0.10
2019-02-03T09:42:00.493Z,0.10
2019-02-03T09:44:26.948Z,0.00
2019-02-03T09:46:53.443Z,0.00
2019-02-03T09:49:19.897Z,0.00
2019-02-03T09:51:46.720Z,0.00
2019-02-03T09:54:13.424Z,0.10
2019-02-03T09:56:41.608Z,0.10
2019-02-03T09:59:08.306Z,0.10
2019-02-03T10:01:34.780Z,0.10
2019-02-03T10:04:01.332Z,0.10
2019-02-03T10:06:27.824Z,0.20
2019-02-03T10:08:54.275Z,0.10
2019-02-03T10:11:23.043Z,0.20
2019-02-03T10:13:49.475Z,0.20
2019-02-03T10:16:16.167Z,0.30
2019-02-03T10:18:42.615Z,0.30
2019-02-03T10:21:09.113Z,0.30
2019-02-03T10:23:35.563Z,0.40
2019-02-03T10:26:02.106Z,0.40
2019-02-03T10:28:28.659Z,0.40
2019-02-03T10:30:55.223Z,0.50
2019-02-03T10:33:21.672Z,0.40
2019-02-03T10:35:48.364Z,0.30
2019-02-03T10:38:14.819Z,0.30
2019-02-03T10:40:41.297Z,0.30
2019-02-03T10:43:07.824Z,0.40
2019-02-03T10:45:34.623Z,0.40
2019-02-03T10:48:01.371Z,0.40
2019-02-03T10:50:28.815Z,0.30
2019-02-03T10:52:55.684Z,0.30
2019-02-03T10:55:22.496Z,0.40
2019-02-03T10:57:49.056Z,0.40
2019-02-03T11:02:45.079Z,0.40
2019-02-03T11:05:13.569Z,0.40
2019-02-03T11:07:40.179Z,0.50
2019-02-03T11:10:07.058Z,0.50
2019-02-03T11:12:33.633Z,0.60
2019-02-03T11:15:00.200Z,0.60
2019-02-03T11:17:26.779Z,0.50
2019-02-03T11:19:53.340Z,0.60
2019-02-03T11:22:19.931Z,0.60
2019-02-03T11:24:46.475Z,0.50
2019-02-03T11:27:13.102Z,0.50
2019-02-03T11:29:39.904Z,0.50
2019-02-03T11:32:06.808Z,0.50
2019-02-03T11:34:33.600Z,0.40
2019-02-03T11:37:00.899Z,0.40
2019-02-03T11:39:27.456Z,0.40
2019-02-03T11:41:53.952Z,0.30
2019-02-03T11:44:21.264Z,0.30
2019-02-03T11:46:47.821Z,0.30
2019-02-03T11:49:14.319Z,0.30
2019-02-03T11:51:40.888Z,0.20
2019-02-03T11:54:07.472Z,0.30
2019-02-03T11:56:34.374Z,0.20
2019-02-03T11:59:01.200Z,0.20
2019-02-03T12:01:27.660Z,0.20
2019-02-03T12:03:54.152Z,0.10
2019-02-03T12:06:20.608Z,0.10
2019-02-03T12:08:47.108Z,0.10
2019-02-03T12:11:13.560Z,0.20
2019-02-03T12:13:40.287Z,0.20
2019-02-03T12:16:06.748Z,0.30
2019-02-03T12:18:33.498Z,0.30
2019-02-03T12:21:00.995Z,0.30
2019-02-03T12:23:27.751Z,0.40
2019-02-03T12:25:54.427Z,0.40
2019-02-03T12:28:21.169Z,0.40
2019-02-03T12:30:47.664Z,0.40
2019-02-03T12:33:14.412Z,0.40
2019-02-03T12:35:40.869Z,0.40
2019-02-03T12:38:07.368Z,0.50
2019-02-03T12:40:34.227Z,0.40
2019-02-03T12:43:00.725Z,0.40
2019-02-03T12:45:27.208Z,0.40
2019-02-03T12:47:54.032Z,0.40
2019-02-03T12:50:20.496Z,0.30
2019-02-03T12:52:46.993Z,0.40
2019-02-03T12:55:14.584Z,0.50
2019-02-03T12:57:41.352Z,0.50
2019-02-03T13:00:10.550Z,0.40
2019-02-03T13:02:37.360Z,0.30
2019-02-03T13:05:04.223Z,0.30
2019-02-03T13:07:30.872Z,0.30
2019-02-03T13:09:57.515Z,0.40
2019-02-03T13:12:25.767Z,0.40
2019-02-03T13:14:52.613Z,0.40
2019-02-03T13:17:19.425Z,0.30
2019-02-03T13:19:45.999Z,0.30
2019-02-03T13:22:12.452Z,0.30
2019-02-03T13:24:39.195Z,0.30
2019-02-03T13:27:05.657Z,0.30
2019-02-03T13:29:32.248Z,0.30
2019-02-03T13:32:10.202Z,0.30
2019-02-03T13:34:27.909Z,0.30
2019-02-03T13:36:54.612Z,0.30
2019-02-03T13:39:21.108Z,0.30
2019-02-03T13:41:47.571Z,0.30
2019-02-03T13:44:14.068Z,0.40
2019-02-03T13:46:40.771Z,0.40
2019-02-03T13:49:08.379Z,0.40
2019-02-03T13:51:34.928Z,0.30
2019-02-03T13:54:01.429Z,0.30
2019-02-03T13:56:28.251Z,0.30
2019-02-03T13:58:54.787Z,0.30
2019-02-03T14:01:21.245Z,0.30
2019-02-03T14:03:48.296Z,0.30
2019-02-03T14:06:14.749Z,0.30
2019-02-03T14:08:41.500Z,0.20
2019-02-03T14:11:08.523Z,0.20
2019-02-03T14:13:35.337Z,0.20
2019-02-03T14:16:01.935Z,0.10
2019-02-03T14:18:28.487Z,0.10
2019-02-03T14:20:55.392Z,0.20
2019-02-03T14:23:21.858Z,0.30
2019-02-03T14:25:48.447Z,0.30
2019-02-03T14:28:15.005Z,0.30
2019-02-03T14:30:42.615Z,0.30
2019-02-03T14:33:09.495Z,0.30
2019-02-03T14:35:36.083Z,0.20
2019-02-03T14:38:02.923Z,0.10
2019-02-03T14:40:29.384Z,0.10
2019-02-03T14:43:01.807Z,0.00
2019-02-03T14:45:24.576Z,0.00
2019-02-03T14:47:51.299Z,0.00
2019-02-03T14:50:18.229Z,0.00
2019-02-03T14:52:45.200Z,0.00
2019-02-03T14:55:12.618Z,-0.10
2019-02-03T14:57:39.174Z,-0.10
2019-02-03T15:00:09.221Z,-0.10
2019-02-03T15:02:36.031Z,-0.10
2019-02-03T15:05:02.732Z,-0.10
2019-02-03T15:07:37.569Z,-0.10
2019-02-03T15:09:57.955Z,-0.10
2019-02-03T15:12:24.467Z,-0.10
2019-02-03T15:14:50.921Z,-0.10
2019-02-03T15:17:17.653Z,-0.20
2019-02-03T15:19:44.104Z,-0.20
2019-02-03T15:22:10.827Z,-0.20
2019-02-03T15:24:37.279Z,-0.20
2019-02-03T15:27:04.300Z,-0.20
2019-02-03T15:29:31.016Z,-0.20
2019-02-03T15:31:57.679Z,-0.20
2019-02-03T15:34:24.211Z,-0.20
2019-02-03T15:36:50.699Z,-0.30
2019-02-03T15:39:17.168Z,-0.30
2019-02-03T15:41:43.716Z,-0.30
2019-02-03T15:44:10.279Z,-0.30
2019-02-03T15:46:36.845Z,-0.30
2019-02-03T15:49:03.407Z,-0.30
2019-02-03T15:51:29.972Z,-0.30
2019-02-03T15:53:56.441Z,-0.30
2019-02-03T15:56:22.911Z,-0.30
2019-02-03T15:58:49.379Z,-0.30
2019-02-03T16:01:16.237Z,-0.30
2019-02-03T16:03:42.703Z,-0.30
2019-02-03T16:06:09.161Z,-0.30
2019-02-03T16:08:35.747Z,-0.40
2019-02-03T16:11:02.199Z,-0.40
2019-02-03T16:13:36.763Z,-0.40
2019-02-03T16:15:57.375Z,-0.40
2019-02-03T16:18:24.131Z,-0.40
2019-02-03T16:20:50.844Z,-0.40
2019-02-03T16:23:17.423Z,-0.40
2019-02-03T16:25:44.128Z,-0.40
2019-02-03T16:28:10.851Z,-0.40
2019-02-03T16:30:37.704Z,-0.40
2019-02-03T16:33:04.512Z,-0.40
2019-02-03T16:35:31.207Z,-0.50
2019-02-03T16:37:57.672Z,-0.50
2019-02-03T16:40:24.751Z,-0.50
2019-02-03T16:42:51.219Z,-0.50
2019-02-03T16:45:17.895Z,-0.50
2019-02-03T16:47:44.861Z,-0.50
2019-02-03T16:50:15.536Z,-0.40
2019-02-03T16:52:42.476Z,-0.40
2019-02-03T16:55:09.085Z,-0.40
2019-02-03T16:57:35.868Z,-0.30
2019-02-03T17:00:02.743Z,-0.30
2019-02-03T17:02:29.294Z,-0.30
2019-02-03T17:04:55.756Z,-0.30
2019-02-03T17:07:22.312Z,-0.20
2019-02-03T17:09:48.809Z,-0.20
2019-02-03T17:12:15.528Z,-0.20
2019-02-03T17:14:42.224Z,-0.20
2019-02-03T17:17:08.679Z,-0.30
2019-02-03T17:19:35.145Z,-0.30
2019-02-03T17:22:01.616Z,-0.20
2019-02-03T17:24:28.088Z,-0.30
2019-02-03T17:26:54.901Z,-0.30
2019-02-03T17:29:21.771Z,-0.30
2019-02-03T17:31:48.575Z,-0.30
2019-02-03T17:34:15.044Z,-0.30
2019-02-03T17:36:42.090Z,-0.30
2019-02-03T17:39:08.658Z,-0.30
2019-02-03T17:41:35.460Z,-0.30
2019-02-03T17:44:12.413Z,-0.30
2019-02-03T17:46:30.541Z,-0.30
2019-02-03T17:48:57.108Z,-0.30
2019-02-03T17:51:23.567Z,-0.30
2019-02-03T17:53:50.388Z,-0.30
2019-02-03T17:56:16.840Z,-0.20
2019-02-03T17:58:43.307Z,-0.20
2019-02-03T18:01:11.877Z,-0.30
2019-02-03T18:03:38.745Z,-0.30
2019-02-03T18:06:05.203Z,-0.30
2019-02-03T18:08:32.015Z,-0.20
2019-02-03T18:10:58.726Z,-0.20
2019-02-03T18:13:25.289Z,-0.20
2019-02-03T18:15:51.742Z,-0.20
2019-02-03T18:18:18.235Z,-0.30
2019-02-03T18:20:44.894Z,-0.20
2019-02-03T18:23:11.456Z,-0.30
2019-02-03T18:25:38.282Z,-0.30
2019-02-03T18:28:05.083Z,-0.30
2019-02-03T18:30:31.674Z,-0.20
2019-02-03T18:32:58.343Z,-0.20
2019-02-03T18:35:24.808Z,-0.20
2019-02-03T18:37:51.602Z,-0.20
2019-02-03T18:40:18.221Z,-0.30
2019-02-03T18:42:45.036Z,-0.30
2019-02-03T18:45:11.997Z,-0.30
2019-02-03T18:47:38.933Z,-0.30
2019-02-03T18:50:06.870Z,-0.30
2019-02-03T18:52:33.319Z,-0.30
2019-02-03T18:55:00.045Z,-0.30
2019-02-03T18:57:26.801Z,-0.30
2019-02-03T18:59:54.087Z,-0.40
2019-02-03T19:02:20.560Z,-0.30
2019-02-03T19:04:47.039Z,-0.20
2019-02-03T19:07:13.487Z,-0.20
2019-02-03T19:09:39.958Z,-0.30
2019-02-03T19:12:06.419Z,-0.20
2019-02-03T19:14:33.291Z,-0.20
2019-02-03T19:17:00.004Z,-0.10
2019-02-03T19:19:26.723Z,-0.10
2019-02-03T19:21:53.193Z,-0.10
2019-02-03T19:24:19.660Z,0.00
2019-02-03T19:26:46.123Z,0.00
2019-02-03T19:29:12.580Z,-0.10
2019-02-03T19:31:39.436Z,-0.10
2019-02-03T19:34:06.131Z,-0.10
2019-02-03T19:36:32.579Z,-0.10
2019-02-03T19:38:59.300Z,-0.20
2019-02-03T19:41:25.752Z,-0.20
2019-02-03T19:43:52.203Z,-0.20
2019-02-03T19:46:18.668Z,-0.20
2019-02-03T19:48:45.377Z,-0.10
2019-02-03T19:51:12.174Z,0.00
2019-02-03T19:53:38.728Z,0.00
2019-02-03T19:56:05.539Z,0.10
2019-02-03T19:58:32.340Z,0.10
2019-02-03T20:00:59.081Z,0.10
2019-02-03T20:03:28.335Z,0.10
2019-02-03T20:05:54.141Z,0.10
2019-02-03T20:08:20.596Z,0.10
2019-02-03T20:10:47.060Z,0.20
2019-02-03T20:13:13.516Z,0.20
2019-02-03T20:15:40.092Z,0.20
2019-02-03T20:18:07.596Z,0.20
2019-02-03T20:20:34.350Z,0.20
2019-02-03T20:23:00.912Z,0.20
2019-02-03T20:25:27.948Z,0.20
2019-02-03T20:27:54.407Z,0.20
2019-02-03T20:30:21.399Z,0.20
2019-02-03T20:32:47.954Z,0.20
2019-02-03T20:35:14.664Z,0.10
2019-02-03T20:37:41.224Z,0.10
2019-02-03T20:40:08.487Z,0.10
2019-02-03T20:42:35.240Z,0.10
2019-02-03T20:45:01.701Z,0.10
2019-02-03T20:47:28.503Z,0.20
2019-02-03T20:49:55.196Z,0.20
2019-02-03T20:52:22.108Z,0.20
2019-02-03T20:54:48.705Z,0.20
2019-02-03T20:57:15.407Z,0.20
2019-02-03T20:59:41.872Z,0.20
2019-02-03T21:02:08.580Z,0.20
2019-02-03T21:04:35.284Z,0.30
2019-02-03T21:07:01.752Z,0.30
2019-02-03T21:09:28.463Z,0.30
2019-02-03T21:11:55.508Z,0.30
2019-02-03T21:14:22.565Z,0.30
2019-02-03T21:16:49.027Z,0.30
2019-02-03T21:19:15.779Z,0.40
2019-02-03T21:21:42.497Z,0.40
2019-02-03T21:24:09.063Z,0.30
2019-02-03T21:26:35.545Z,0.30
2019-02-03T21:29:02.104Z,0.30
2019-02-03T21:31:29.140Z,0.20
2019-02-03T21:33:55.689Z,0.20
2019-02-03T21:36:22.360Z,0.30
2019-02-03T21:38:49.171Z,0.20
2019-02-03T21:41:15.727Z,0.20
2019-02-03T21:43:42.179Z,0.20
2019-02-03T21:46:08.643Z,0.20
2019-02-03T21:48:35.195Z,0.20
2019-02-03T21:51:01.660Z,0.20
2019-02-03T21:53:28.115Z,0.20
2019-02-03T21:55:54.580Z,0.20
2019-02-03T21:58:21.034Z,0.20
2019-02-03T22:00:47.507Z,0.20
2019-02-03T22:03:14.212Z,0.30
2019-02-03T22:05:40.675Z,0.30
2019-02-03T22:08:07.384Z,0.30
2019-02-03T22:10:34.977Z,0.20
2019-02-03T22:13:03.117Z,0.10
2019-02-03T22:15:29.852Z,0.10
2019-02-03T22:17:56.316Z,0.00
2019-02-03T22:20:22.793Z,-0.10
2019-02-03T22:22:49.761Z,-0.20
2019-02-03T22:25:16.232Z,-0.30
2019-02-03T22:27:43.006Z,-0.30
2019-02-03T22:30:14.271Z,-0.20
2019-02-03T22:32:41.074Z,-0.30
2019-02-03T22:35:07.944Z,-0.30
2019-02-03T22:37:34.639Z,-0.20
2019-02-03T22:40:01.087Z,-0.20
2019-02-03T22:42:27.552Z,-0.20
2019-02-03T22:44:54.648Z,-0.20
2019-02-03T22:47:21.116Z,-0.20
2019-02-03T22:49:47.572Z,-0.30
2019-02-03T22:52:14.033Z,-0.40
2019-02-03T22:54:40.736Z,-0.50
2019-02-03T22:57:07.200Z,-0.50
2019-02-03T22:59:33.657Z,-0.60
2019-02-03T23:02:00.709Z,-0.70
2019-02-03T23:04:28.787Z,-0.90
2019-02-03T23:06:55.256Z,-1.00
2019-02-03T23:09:24.055Z,-1.10
2019-02-03T23:11:50.772Z,-1.30
2019-02-03T23:14:17.236Z,-1.30
2019-02-03T23:16:43.709Z,-1.30
2019-02-03T23:19:10.364Z,-1.40
2019-02-03T23:21:36.923Z,-1.40
2019-02-03T23:24:03.389Z,-1.50
2019-02-03T23:26:29.852Z,-1.50
2019-02-03T23:28:56.557Z,-1.70
2019-02-03T23:31:23.024Z,-1.80
2019-02-03T23:33:49.483Z,-1.80
2019-02-03T23:36:16.206Z,-1.80
2019-02-03T23:38:44.136Z,-1.80
2019-02-03T23:41:10.605Z,-1.80
2019-02-03T23:43:37.308Z,-1.80
2019-02-03T23:46:03.775Z,-1.80
2019-02-03T23:48:30.576Z,-1.80
2019-02-03T23:50:57.476Z,-1.90
2019-02-03T23:53:24.215Z,-2.00
2019-02-03T23:55:51.019Z,-2.10
2019-02-03T23:58:17.822Z,-2.10
